Terminal Aerodrome Forecast
Issued by NWS

Home | Current Version | Previous Version | Text Only | Print | Product List | Glossary On
Versions: 1 2 3 4 5 6 7 8 9 10 11 12 13 14 15 16 17
523
FTUS45 KABQ 302320
TAFLVS
TAF
KLVS 302320Z 3100/3124 24017G25KT P6SM SCT200
     FM310200 20011KT P6SM BKN200
     FM311500 19020G30KT P6SM SCT150
     FM311800 21030G40KT P6SM SCT120=

USA.gov is the U.S. government's official web portal to all federal, state and local government web resources and services.